Time;durP1;ratioP1;P1;durP2;ratioP2;P2;SDS_P1;SDS_P2;PMS_P1;PMS_P2;Temp;Humidity;BMP_temperature;BMP_pressure;BME280_temperature;BME280_humidity;BME280_pressure;Samples;Min_cycle;Max_cycle;Signal;HPM_P1;HPM_P2
2023/08/27 00:01:35;;;;;;;;;;;24.80;54.70;;;;;;1572906;74;1910;-55
2023/08/27 00:03:37;;;;;;;;;;;24.90;54.80;;;;;;1565464;74;724;-54
2023/08/27 00:05:43;;;;;;;;;;;24.90;54.90;;;;;;1571179;74;691;-54
2023/08/27 00:07:45;;;;;;;;;;;24.90;54.80;;;;;;1569457;74;1675;-52
2023/08/27 00:09:47;;;;;;;;;;;24.90;54.80;;;;;;1568135;74;1554;-55
2023/08/27 00:11:49;;;;;;;;;;;24.90;54.80;;;;;;1575467;74;795;-55
2023/08/27 00:13:51;;;;;;;;;;;24.90;54.90;;;;;;1567804;74;730;-55
2023/08/27 00:15:53;;;;;;;;;;;24.90;54.90;;;;;;1568985;74;756;-54
2023/08/27 00:17:54;;;;;;;;;;;24.90;54.90;;;;;;1575003;74;732;-55
2023/08/27 00:19:57;;;;;;;;;;;24.80;54.80;;;;;;1574081;74;1971;-55
2023/08/27 00:21:59;;;;;;;;;;;24.90;54.90;;;;;;1562908;74;715;-55
2023/08/27 00:24:04;;;;;;;;;;;24.90;54.90;;;;;;1568318;74;1423;-55
2023/08/27 00:26:05;;;;;;;;;;;24.90;54.90;;;;;;1568817;74;1626;-54
2023/08/27 00:28:07;;;;;;;;;;;24.90;54.90;;;;;;1574023;74;788;-53
2023/08/27 00:30:09;;;;;;;;;;;24.80;54.80;;;;;;1568717;74;1142;-54
2023/08/27 00:32:11;;;;;;;;;;;24.90;54.90;;;;;;1572423;74;771;-55
2023/08/27 00:34:13;;;;;;;;;;;24.80;54.90;;;;;;1571356;74;766;-53
2023/08/27 00:36:15;;;;;;;;;;;24.90;54.90;;;;;;1575584;74;1540;-52
2023/08/27 00:38:17;;;;;;;;;;;24.80;54.80;;;;;;1571131;74;730;-55
2023/08/27 00:40:19;;;;;;;;;;;24.90;54.90;;;;;;1564357;74;1942;-55
2023/08/27 00:42:21;;;;;;;;;;;24.90;54.90;;;;;;1563749;74;771;-56
2023/08/27 00:44:23;;;;;;;;;;;24.90;54.90;;;;;;1569874;74;699;-53
2023/08/27 00:46:24;;;;;;;;;;;24.80;54.80;;;;;;1569426;74;805;-55
2023/08/27 00:48:26;;;;;;;;;;;24.80;54.80;;;;;;1568894;74;801;-53
2023/08/27 00:50:28;;;;;;;;;;;24.80;54.80;;;;;;1566633;74;1327;-53
2023/08/27 00:52:30;;;;;;;;;;;24.90;54.90;;;;;;1566354;74;778;-55
2023/08/27 00:54:33;;;;;;;;;;;24.80;54.80;;;;;;1574139;74;703;-54
2023/08/27 00:56:35;;;;;;;;;;;24.80;54.80;;;;;;1567051;74;695;-54
2023/08/27 00:58:37;;;;;;;;;;;24.90;54.90;;;;;;1568187;74;707;-54
2023/08/27 01:00:38;;;;;;;;;;;24.80;54.80;;;;;;1570912;74;1946;-52
2023/08/27 01:02:42;;;;;;;;;;;24.80;54.80;;;;;;1569084;74;779;-54
2023/08/27 01:04:44;;;;;;;;;;;24.90;54.90;;;;;;1570941;74;1545;-53
2023/08/27 01:06:46;;;;;;;;;;;24.80;54.80;;;;;;1568892;74;768;-54
2023/08/27 01:08:50;;;;;;;;;;;24.90;54.90;;;;;;1568793;74;740;-54
2023/08/27 01:11:02;;;;;;;;;;;24.80;54.80;;;;;;1572019;74;1174;-52
2023/08/27 01:13:04;;;;;;;;;;;24.80;54.80;;;;;;1575531;74;723;-53
2023/08/27 01:15:06;;;;;;;;;;;24.80;54.80;;;;;;1564329;74;1046;-53
2023/08/27 01:17:08;;;;;;;;;;;24.80;54.80;;;;;;1566164;74;795;-52
2023/08/27 01:19:14;;;;;;;;;;;24.90;54.80;;;;;;1566983;74;1555;-55
2023/08/27 01:21:19;;;;;;;;;;;24.80;54.70;;;;;;1571950;74;1891;-55
2023/08/27 01:23:21;;;;;;;;;;;24.80;54.70;;;;;;1558707;74;706;-53
2023/08/27 01:25:24;;;;;;;;;;;24.80;54.80;;;;;;1568156;74;646;-53
2023/08/27 01:27:30;;;;;;;;;;;24.80;54.70;;;;;;1568010;74;727;-54
2023/08/27 01:29:52;;;;;;;;;;;24.80;54.70;;;;;;1576797;74;1181;-54
2023/08/27 01:31:56;;;;;;;;;;;24.80;54.70;;;;;;1482329;79;1520;-55
2023/08/27 01:33:59;;;;;;;;;;;24.80;54.70;;;;;;1482863;79;1697;-52
2023/08/27 01:36:01;;;;;;;;;;;24.80;54.70;;;;;;1486369;79;738;-56
2023/08/27 01:38:02;;;;;;;;;;;24.80;54.70;;;;;;1556804;74;901;-55
2023/08/27 01:40:05;;;;;;;;;;;24.80;54.70;;;;;;1567991;74;1142;-55
2023/08/27 01:42:07;;;;;;;;;;;24.80;54.80;;;;;;1568932;74;1906;-55
2023/08/27 01:44:09;;;;;;;;;;;24.90;55.00;;;;;;1574861;74;727;-53
2023/08/27 01:46:11;;;;;;;;;;;24.80;54.80;;;;;;1571996;74;712;-55
2023/08/27 01:48:13;;;;;;;;;;;24.80;54.70;;;;;;1566883;74;1290;-54
2023/08/27 01:50:15;;;;;;;;;;;24.80;54.70;;;;;;1568185;74;1126;-52
2023/08/27 01:52:17;;;;;;;;;;;24.80;54.80;;;;;;1568012;74;744;-56
2023/08/27 01:54:18;;;;;;;;;;;24.80;54.80;;;;;;1579427;74;716;-55
2023/08/27 01:56:20;;;;;;;;;;;24.80;54.80;;;;;;1567660;74;731;-55
2023/08/27 01:58:22;;;;;;;;;;;24.80;54.80;;;;;;1570903;74;718;-55
2023/08/27 02:00:24;;;;;;;;;;;24.80;54.80;;;;;;1575679;74;1094;-55
2023/08/27 02:02:26;;;;;;;;;;;24.80;54.80;;;;;;1571379;74;1938;-53
2023/08/27 02:04:28;;;;;;;;;;;24.80;54.90;;;;;;1566650;74;808;-53
2023/08/27 02:06:30;;;;;;;;;;;24.80;54.80;;;;;;1575939;74;741;-56
2023/08/27 02:08:32;;;;;;;;;;;24.80;54.80;;;;;;1568456;74;750;-53
2023/08/27 02:10:34;;;;;;;;;;;24.80;54.80;;;;;;1575305;74;1150;-55
2023/08/27 02:12:35;;;;;;;;;;;24.80;54.80;;;;;;1570573;74;818;-54
2023/08/27 02:14:38;;;;;;;;;;;24.80;54.70;;;;;;1574316;74;1520;-55
2023/08/27 02:16:40;;;;;;;;;;;24.80;54.70;;;;;;1572405;74;712;-55
2023/08/27 02:18:42;;;;;;;;;;;24.80;54.70;;;;;;1568140;74;723;-56
2023/08/27 02:20:44;;;;;;;;;;;24.80;54.70;;;;;;1572989;74;1954;-53
2023/08/27 02:22:46;;;;;;;;;;;24.80;54.70;;;;;;1574340;74;713;-55
2023/08/27 02:24:48;;;;;;;;;;;24.80;54.70;;;;;;1569343;74;798;-54
2023/08/27 02:26:49;;;;;;;;;;;24.80;54.70;;;;;;1566561;74;740;-52
2023/08/27 02:28:51;;;;;;;;;;;24.80;54.70;;;;;;1568539;74;1441;-54
2023/08/27 02:30:56;;;;;;;;;;;24.80;54.70;;;;;;1581600;74;1112;-55
2023/08/27 02:32:58;;;;;;;;;;;24.80;54.70;;;;;;1573247;74;716;-53
2023/08/27 02:35:00;;;;;;;;;;;24.80;54.70;;;;;;1570551;74;725;-55
2023/08/27 02:37:02;;;;;;;;;;;24.80;54.70;;;;;;1574767;74;746;-55
2023/08/27 02:39:04;;;;;;;;;;;24.80;54.60;;;;;;1561889;74;1133;-55
2023/08/27 02:41:05;;;;;;;;;;;24.80;54.60;;;;;;1576085;74;1934;-55
2023/08/27 02:43:07;;;;;;;;;;;24.80;54.60;;;;;;1561897;74;1351;-55
2023/08/27 02:45:10;;;;;;;;;;;24.80;54.70;;;;;;1578037;74;627;-54
2023/08/27 02:47:12;;;;;;;;;;;24.80;54.60;;;;;;1575739;74;720;-56
2023/08/27 02:49:14;;;;;;;;;;;24.80;54.60;;;;;;1576057;74;1079;-53
2023/08/27 02:51:16;;;;;;;;;;;24.80;54.60;;;;;;1578913;74;739;-53
2023/08/27 02:53:18;;;;;;;;;;;24.70;54.70;;;;;;1576751;74;657;-53
2023/08/27 02:55:20;;;;;;;;;;;24.80;54.70;;;;;;1574287;74;803;-52
2023/08/27 02:57:21;;;;;;;;;;;24.80;54.70;;;;;;1572026;74;1558;-53
2023/08/27 02:59:23;;;;;;;;;;;24.80;54.60;;;;;;1581987;74;1154;-55
2023/08/27 03:01:25;;;;;;;;;;;24.70;54.70;;;;;;1574430;74;1933;-53
2023/08/27 03:03:27;;;;;;;;;;;24.70;54.70;;;;;;1568157;74;702;-55
2023/08/27 03:05:29;;;;;;;;;;;24.70;54.70;;;;;;1566541;74;710;-56
2023/08/27 03:07:31;;;;;;;;;;;24.80;54.70;;;;;;1572887;74;722;-55
2023/08/27 03:09:33;;;;;;;;;;;24.80;54.70;;;;;;1575351;74;1269;-53
2023/08/27 03:11:35;;;;;;;;;;;24.80;54.70;;;;;;1570235;74;1276;-53
2023/08/27 03:13:38;;;;;;;;;;;24.80;54.60;;;;;;1571540;74;625;-55
2023/08/27 03:15:40;;;;;;;;;;;24.70;54.70;;;;;;1565899;74;759;-55
2023/08/27 03:17:41;;;;;;;;;;;24.80;54.60;;;;;;1575443;74;1055;-54
2023/08/27 03:19:43;;;;;;;;;;;24.70;54.50;;;;;;1567953;74;1144;-56
2023/08/27 03:21:45;;;;;;;;;;;24.80;54.50;;;;;;1567589;74;1934;-55
2023/08/27 03:23:47;;;;;;;;;;;24.80;54.40;;;;;;1583414;74;738;-54
2023/08/27 03:25:50;;;;;;;;;;;24.70;54.40;;;;;;1570940;74;1490;-56
2023/08/27 03:27:52;;;;;;;;;;;24.80;54.50;;;;;;1564394;74;776;-54
2023/08/27 03:29:53;;;;;;;;;;;24.70;54.40;;;;;;1570255;74;1120;-55
2023/08/27 03:31:55;;;;;;;;;;;24.70;54.40;;;;;;1567603;74;710;-54
2023/08/27 03:33:57;;;;;;;;;;;24.70;54.40;;;;;;1573635;74;771;-55
2023/08/27 03:36:00;;;;;;;;;;;24.70;54.30;;;;;;1578901;74;685;-54
2023/08/27 03:38:02;;;;;;;;;;;24.70;54.30;;;;;;1575586;74;748;-55
2023/08/27 03:40:04;;;;;;;;;;;24.70;54.30;;;;;;1563952;74;1545;-53
2023/08/27 03:42:06;;;;;;;;;;;24.70;54.30;;;;;;1562802;74;1941;-54
2023/08/27 03:44:08;;;;;;;;;;;24.70;54.20;;;;;;1577244;74;715;-55
2023/08/27 03:46:10;;;;;;;;;;;24.70;54.20;;;;;;1572681;74;681;-54
2023/08/27 03:48:12;;;;;;;;;;;24.70;54.20;;;;;;1567247;74;719;-53
2023/08/27 03:50:14;;;;;;;;;;;24.70;54.20;;;;;;1572113;74;1132;-55
2023/08/27 03:52:15;;;;;;;;;;;24.70;54.20;;;;;;1571945;74;734;-55
2023/08/27 03:54:17;;;;;;;;;;;24.70;54.20;;;;;;1573645;74;1607;-53
2023/08/27 03:56:19;;;;;;;;;;;24.70;54.20;;;;;;1569564;74;991;-55
2023/08/27 03:58:21;;;;;;;;;;;24.70;54.20;;;;;;1572025;74;791;-55
2023/08/27 04:00:23;;;;;;;;;;;24.70;54.20;;;;;;1579009;74;1125;-54
2023/08/27 04:02:25;;;;;;;;;;;24.70;54.20;;;;;;1567373;74;1946;-53
2023/08/27 04:04:27;;;;;;;;;;;24.70;54.10;;;;;;1564941;74;745;-53
2023/08/27 04:06:28;;;;;;;;;;;24.70;54.20;;;;;;1565794;74;672;-55
2023/08/27 04:08:30;;;;;;;;;;;24.70;54.10;;;;;;1567746;74;1626;-55
2023/08/27 04:10:32;;;;;;;;;;;24.70;54.10;;;;;;1569366;74;1155;-55
2023/08/27 04:12:34;;;;;;;;;;;24.70;54.20;;;;;;1562355;74;721;-55
2023/08/27 04:14:36;;;;;;;;;;;24.70;54.20;;;;;;1569807;74;672;-54
2023/08/27 04:16:38;;;;;;;;;;;24.70;54.10;;;;;;1575558;74;735;-52
2023/08/27 04:18:40;;;;;;;;;;;24.70;54.10;;;;;;1568046;74;660;-53
2023/08/27 04:20:42;;;;;;;;;;;24.70;54.20;;;;;;1568434;74;1136;-55
2023/08/27 04:22:43;;;;;;;;;;;24.60;54.00;;;;;;1565112;74;1930;-53
2023/08/27 04:24:45;;;;;;;;;;;24.70;54.20;;;;;;1575415;74;744;-53
2023/08/27 04:26:48;;;;;;;;;;;24.70;54.20;;;;;;1574097;74;711;-54
2023/08/27 04:28:50;;;;;;;;;;;24.70;54.20;;;;;;1574465;74;787;-55
2023/08/27 04:30:52;;;;;;;;;;;24.70;54.20;;;;;;1569909;74;1144;-55
2023/08/27 04:32:54;;;;;;;;;;;24.70;54.10;;;;;;1574863;74;717;-54
2023/08/27 04:34:56;;;;;;;;;;;24.70;54.20;;;;;;1565874;74;748;-55
2023/08/27 04:37:00;;;;;;;;;;;24.60;54.00;;;;;;1564622;74;1293;-55
2023/08/27 04:39:02;;;;;;;;;;;24.70;54.10;;;;;;1567151;74;1557;-53
2023/08/27 04:41:03;;;;;;;;;;;24.70;54.20;;;;;;1581976;74;768;-55
2023/08/27 04:43:05;;;;;;;;;;;24.70;54.10;;;;;;1571482;74;1933;-55
2023/08/27 04:45:08;;;;;;;;;;;24.60;54.00;;;;;;1568239;74;766;-52
2023/08/27 04:47:10;;;;;;;;;;;24.70;54.20;;;;;;1557233;74;730;-55
2023/08/27 04:49:13;;;;;;;;;;;24.70;54.20;;;;;;1576548;74;1157;-55
2023/08/27 04:51:16;;;;;;;;;;;24.70;54.10;;;;;;1573922;74;1607;-52
2023/08/27 04:53:19;;;;;;;;;;;24.70;54.10;;;;;;1570870;74;805;-55
2023/08/27 04:55:21;;;;;;;;;;;24.70;54.10;;;;;;1572300;74;702;-54
2023/08/27 04:57:23;;;;;;;;;;;24.60;54.00;;;;;;1571200;74;766;-53
2023/08/27 04:59:25;;;;;;;;;;;24.60;54.10;;;;;;1580777;74;1081;-55
2023/08/27 05:01:27;;;;;;;;;;;24.70;54.10;;;;;;1568911;74;703;-53
2023/08/27 05:03:28;;;;;;;;;;;24.70;54.20;;;;;;1565076;74;1947;-55
2023/08/27 05:05:30;;;;;;;;;;;24.70;54.20;;;;;;1559918;74;735;-55
2023/08/27 05:07:32;;;;;;;;;;;24.70;54.20;;;;;;1577342;74;753;-55
2023/08/27 05:09:34;;;;;;;;;;;24.70;54.20;;;;;;1577732;74;1173;-55
2023/08/27 05:11:36;;;;;;;;;;;24.70;54.20;;;;;;1572675;74;734;-54
2023/08/27 05:13:38;;;;;;;;;;;24.60;54.10;;;;;;1571408;74;845;-53
2023/08/27 05:15:40;;;;;;;;;;;24.60;54.00;;;;;;1567194;74;763;-56
2023/08/27 05:17:42;;;;;;;;;;;24.60;54.10;;;;;;1572247;74;1542;-55
2023/08/27 05:19:44;;;;;;;;;;;24.60;54.00;;;;;;1572181;74;1121;-56
2023/08/27 05:21:45;;;;;;;;;;;24.60;54.00;;;;;;1566661;74;1942;-55
2023/08/27 05:23:47;;;;;;;;;;;24.70;54.10;;;;;;1581121;74;576;-54
2023/08/27 05:25:49;;;;;;;;;;;24.60;53.90;;;;;;1567847;74;786;-53
2023/08/27 05:27:51;;;;;;;;;;;24.70;54.10;;;;;;1574639;74;720;-52
2023/08/27 05:29:53;;;;;;;;;;;24.70;54.10;;;;;;1567844;74;1124;-54
2023/08/27 05:31:55;;;;;;;;;;;24.60;53.90;;;;;;1583907;74;1320;-55
2023/08/27 05:33:57;;;;;;;;;;;24.60;53.90;;;;;;1571470;74;715;-52
2023/08/27 05:35:59;;;;;;;;;;;24.60;54.00;;;;;;1566299;74;772;-53
2023/08/27 05:38:01;;;;;;;;;;;24.60;54.00;;;;;;1575490;74;746;-54
2023/08/27 05:40:05;;;;;;;;;;;24.60;54.10;;;;;;1565969;74;1153;-55
2023/08/27 05:42:07;;;;;;;;;;;24.60;54.10;;;;;;1570492;74;1938;-54
2023/08/27 05:44:09;;;;;;;;;;;24.60;54.10;;;;;;1562592;74;718;-52
2023/08/27 05:46:11;;;;;;;;;;;24.60;54.10;;;;;;1574168;74;1557;-52
2023/08/27 05:48:13;;;;;;;;;;;24.60;54.10;;;;;;1569611;74;602;-54
2023/08/27 05:50:15;;;;;;;;;;;24.60;54.20;;;;;;1571128;74;1132;-55
2023/08/27 05:52:16;;;;;;;;;;;24.60;54.20;;;;;;1571230;74;773;-55
2023/08/27 05:54:18;;;;;;;;;;;24.70;54.20;;;;;;1567241;74;785;-53
2023/08/27 05:56:20;;;;;;;;;;;24.70;54.20;;;;;;1562921;74;689;-53
2023/08/27 05:58:22;;;;;;;;;;;24.60;54.10;;;;;;1571022;74;617;-53
2023/08/27 06:00:24;;;;;;;;;;;24.70;54.30;;;;;;1568251;74;1582;-54
2023/08/27 06:02:26;;;;;;;;;;;24.70;54.40;;;;;;1578950;74;1944;-55
2023/08/27 06:04:28;;;;;;;;;;;24.60;54.20;;;;;;1576539;74;754;-52
2023/08/27 06:06:30;;;;;;;;;;;24.60;54.20;;;;;;1572017;74;779;-53
2023/08/27 06:08:32;;;;;;;;;;;24.60;54.30;;;;;;1582350;74;801;-55
2023/08/27 06:10:35;;;;;;;;;;;24.60;54.30;;;;;;1574011;74;1121;-55
2023/08/27 06:12:37;;;;;;;;;;;24.60;54.20;;;;;;1574105;74;722;-55
2023/08/27 06:14:38;;;;;;;;;;;24.60;54.20;;;;;;1572303;74;1544;-54
2023/08/27 06:16:40;;;;;;;;;;;24.70;54.40;;;;;;1572356;74;791;-55
2023/08/27 06:18:42;;;;;;;;;;;24.60;54.30;;;;;;1577532;74;800;-55
2023/08/27 06:20:44;;;;;;;;;;;24.60;54.20;;;;;;1575265;74;1102;-53
2023/08/27 06:22:46;;;;;;;;;;;24.60;54.30;;;;;;1574299;74;1934;-52
2023/08/27 06:24:49;;;;;;;;;;;24.60;54.30;;;;;;1575713;74;721;-53
2023/08/27 06:26:51;;;;;;;;;;;24.60;54.30;;;;;;1566003;74;803;-55
2023/08/27 06:28:52;;;;;;;;;;;24.60;54.30;;;;;;1567351;74;1492;-55
2023/08/27 06:30:54;;;;;;;;;;;24.60;54.20;;;;;;1567617;74;1117;-53
2023/08/27 06:32:56;;;;;;;;;;;24.60;54.30;;;;;;1568815;74;706;-55
2023/08/27 06:34:58;;;;;;;;;;;24.70;54.40;;;;;;1570353;74;774;-55
2023/08/27 06:37:00;;;;;;;;;;;24.60;54.20;;;;;;1572946;74;752;-54
2023/08/27 06:39:02;;;;;;;;;;;24.60;54.20;;;;;;1565979;74;1164;-56
2023/08/27 06:41:04;;;;;;;;;;;24.60;54.20;;;;;;1567746;74;704;-54
2023/08/27 06:43:06;;;;;;;;;;;24.60;54.20;;;;;;1567963;74;1954;-55
2023/08/27 06:45:07;;;;;;;;;;;24.50;54.20;;;;;;1579395;74;755;-53
2023/08/27 06:47:09;;;;;;;;;;;24.60;54.20;;;;;;1575733;74;789;-56
2023/08/27 06:49:11;;;;;;;;;;;24.60;54.10;;;;;;1578090;74;1145;-56
2023/08/27 06:51:13;;;;;;;;;;;24.60;54.10;;;;;;1570161;74;823;-56
2023/08/27 06:53:15;;;;;;;;;;;24.60;54.20;;;;;;1567538;74;711;-56
2023/08/27 06:55:17;;;;;;;;;;;24.50;54.10;;;;;;1572303;74;792;-56
2023/08/27 06:57:21;;;;;;;;;;;24.60;54.20;;;;;;1572222;74;1549;-56
2023/08/27 06:59:22;;;;;;;;;;;24.50;54.20;;;;;;1569435;74;1334;-55
2023/08/27 07:01:24;;;;;;;;;;;24.50;54.10;;;;;;1562311;74;719;-54
2023/08/27 07:03:26;;;;;;;;;;;24.50;54.20;;;;;;1575814;74;1919;-55
2023/08/27 07:05:30;;;;;;;;;;;24.60;54.20;;;;;;1569540;74;726;-56
2023/08/27 07:07:32;;;;;;;;;;;24.50;54.20;;;;;;1567116;74;755;-55
2023/08/27 07:09:34;;;;;;;;;;;24.50;54.20;;;;;;1567274;74;1095;-55
2023/08/27 07:11:35;;;;;;;;;;;24.50;54.20;;;;;;1569898;74;1522;-54
2023/08/27 07:13:37;;;;;;;;;;;24.50;54.30;;;;;;1568989;74;715;-54
2023/08/27 07:15:39;;;;;;;;;;;24.60;54.20;;;;;;1576828;74;763;-52
2023/08/27 07:17:41;;;;;;;;;;;24.60;54.20;;;;;;1573183;74;752;-54
2023/08/27 07:19:43;;;;;;;;;;;24.60;54.20;;;;;;1569309;74;1158;-56
2023/08/27 07:21:45;;;;;;;;;;;24.60;54.30;;;;;;1566868;74;1067;-55
2023/08/27 07:23:47;;;;;;;;;;;24.60;54.20;;;;;;1563856;74;1945;-54
2023/08/27 07:25:48;;;;;;;;;;;24.60;54.20;;;;;;1570219;74;1549;-53
2023/08/27 07:27:50;;;;;;;;;;;24.70;54.40;;;;;;1573666;74;831;-56
2023/08/27 07:29:53;;;;;;;;;;;24.60;54.20;;;;;;1578322;74;1144;-56
2023/08/27 07:31:55;;;;;;;;;;;24.60;54.20;;;;;;1568564;74;775;-53
2023/08/27 07:33:57;;;;;;;;;;;24.60;54.20;;;;;;1574231;74;726;-53
2023/08/27 07:35:59;;;;;;;;;;;24.60;54.20;;;;;;1569801;74;704;-54
2023/08/27 07:38:01;;;;;;;;;;;24.50;54.20;;;;;;1573258;74;720;-55
2023/08/27 07:40:03;;;;;;;;;;;24.50;54.20;;;;;;1565020;74;1579;-56
2023/08/27 07:42:05;;;;;;;;;;;24.50;54.20;;;;;;1571913;74;696;-56
2023/08/27 07:44:07;;;;;;;;;;;24.60;54.30;;;;;;1580345;74;1943;-56
2023/08/27 07:46:09;;;;;;;;;;;24.50;54.20;;;;;;1572853;74;785;-54
2023/08/27 07:48:11;;;;;;;;;;;24.60;54.20;;;;;;1572090;74;684;-55
2023/08/27 07:50:13;;;;;;;;;;;24.50;54.30;;;;;;1571962;74;1137;-53
2023/08/27 07:52:15;;;;;;;;;;;24.70;54.40;;;;;;1569233;74;1721;-53
2023/08/27 07:54:16;;;;;;;;;;;24.50;54.20;;;;;;1572529;74;734;-52
2023/08/27 07:56:18;;;;;;;;;;;24.60;54.20;;;;;;1569536;74;747;-52
2023/08/27 07:58:21;;;;;;;;;;;24.50;54.20;;;;;;1574968;74;723;-56
2023/08/27 08:00:23;;;;;;;;;;;24.50;54.20;;;;;;1577132;74;1178;-56
2023/08/27 08:02:24;;;;;;;;;;;24.50;54.20;;;;;;1571531;74;726;-56
2023/08/27 08:04:26;;;;;;;;;;;24.60;54.20;;;;;;1583791;74;1939;-56
2023/08/27 08:06:28;;;;;;;;;;;24.60;54.20;;;;;;1567540;74;1339;-55
2023/08/27 08:08:30;;;;;;;;;;;24.50;54.20;;;;;;1566798;74;745;-55
2023/08/27 08:10:32;;;;;;;;;;;24.50;54.20;;;;;;1567696;74;1138;-56
2023/08/27 08:12:34;;;;;;;;;;;24.50;54.20;;;;;;1581367;74;729;-53
2023/08/27 08:14:36;;;;;;;;;;;24.60;54.20;;;;;;1572802;74;732;-53
2023/08/27 08:16:38;;;;;;;;;;;24.50;54.30;;;;;;1571834;74;782;-55
2023/08/27 08:18:40;;;;;;;;;;;24.50;54.20;;;;;;1566797;74;768;-56
2023/08/27 08:20:42;;;;;;;;;;;24.60;54.10;;;;;;1568386;74;1286;-55
2023/08/27 08:22:44;;;;;;;;;;;24.50;54.00;;;;;;1565590;74;737;-56
2023/08/27 08:24:46;;;;;;;;;;;24.60;54.00;;;;;;1567756;74;1926;-56
2023/08/27 08:26:52;;;;;;;;;;;24.50;54.00;;;;;;1568260;74;712;-56
2023/08/27 08:28:52;;;;;;;;;;;24.50;54.00;;;;;;1568904;74;1673;-54
2023/08/27 08:30:54;;;;;;;;;;;24.60;53.90;;;;;;1568697;74;1125;-54
2023/08/27 08:32:55;;;;;;;;;;;24.60;53.90;;;;;;1575151;74;734;-56
2023/08/27 08:34:57;;;;;;;;;;;24.50;53.90;;;;;;1580254;74;1544;-54
2023/08/27 08:37:01;;;;;;;;;;;24.50;53.80;;;;;;1572879;74;794;-56
2023/08/27 08:39:03;;;;;;;;;;;24.50;53.80;;;;;;1576699;74;1129;-56
2023/08/27 08:41:05;;;;;;;;;;;24.50;53.80;;;;;;1559480;74;732;-55
2023/08/27 08:43:07;;;;;;;;;;;24.60;53.70;;;;;;1576000;74;1943;-53
2023/08/27 08:45:13;;;;;;;;;;;24.60;53.60;;;;;;1556703;74;721;-53
2023/08/27 08:47:15;;;;;;;;;;;24.60;53.60;;;;;;1577062;74;800;-53
2023/08/27 08:49:17;;;;;;;;;;;24.50;53.50;;;;;;1576433;74;1541;-53
2023/08/27 08:51:24;;;;;;;;;;;24.50;53.60;;;;;;1578436;74;703;-54
2023/08/27 08:53:25;;;;;;;;;;;24.50;53.60;;;;;;1567959;74;1703;-54
2023/08/27 08:55:27;;;;;;;;;;;24.50;53.50;;;;;;1576118;74;683;-52
2023/08/27 08:57:29;;;;;;;;;;;24.50;53.50;;;;;;1572562;74;781;-56
2023/08/27 08:59:31;;;;;;;;;;;24.50;53.50;;;;;;1581708;74;1093;-55
2023/08/27 09:01:33;;;;;;;;;;;24.50;53.30;;;;;;1565683;74;726;-54
2023/08/27 09:03:35;;;;;;;;;;;24.50;53.20;;;;;;1575961;74;1934;-56
2023/08/27 09:05:37;;;;;;;;;;;24.50;53.00;;;;;;1575649;74;728;-56
2023/08/27 09:07:39;;;;;;;;;;;24.50;52.90;;;;;;1580133;74;869;-55
2023/08/27 09:09:41;;;;;;;;;;;24.50;52.90;;;;;;1574359;74;1175;-56
2023/08/27 09:11:43;;;;;;;;;;;24.50;53.00;;;;;;1576923;74;709;-56
2023/08/27 09:13:45;;;;;;;;;;;24.50;53.00;;;;;;1569610;74;763;-55
2023/08/27 09:15:48;;;;;;;;;;;24.50;52.90;;;;;;1568122;74;720;-53
2023/08/27 09:17:50;;;;;;;;;;;24.40;52.80;;;;;;1572820;74;1614;-54
2023/08/27 09:19:52;;;;;;;;;;;24.50;52.80;;;;;;1566540;74;1160;-55
2023/08/27 09:21:54;;;;;;;;;;;24.50;52.90;;;;;;1562927;74;674;-55
2023/08/27 09:23:56;;;;;;;;;;;24.40;52.70;;;;;;1569427;74;1945;-54
2023/08/27 09:26:00;;;;;;;;;;;24.50;52.80;;;;;;1573528;74;730;-53
2023/08/27 09:28:02;;;;;;;;;;;24.50;52.80;;;;;;1574064;74;757;-54
2023/08/27 09:30:04;;;;;;;;;;;24.50;52.70;;;;;;1571509;74;1093;-53
2023/08/27 09:32:06;;;;;;;;;;;24.40;52.70;;;;;;1572677;74;1569;-53
2023/08/27 09:34:09;;;;;;;;;;;24.50;52.70;;;;;;1567948;74;735;-55
2023/08/27 09:36:12;;;;;;;;;;;24.50;52.60;;;;;;1568139;74;668;-53
2023/08/27 09:38:15;;;;;;;;;;;24.50;52.60;;;;;;1571968;74;832;-56
2023/08/27 09:40:16;;;;;;;;;;;24.50;52.60;;;;;;1565389;74;1152;-55
2023/08/27 09:42:18;;;;;;;;;;;24.40;52.40;;;;;;1574454;74;745;-53
2023/08/27 09:44:20;;;;;;;;;;;24.40;52.40;;;;;;1568322;74;1923;-56
2023/08/27 09:46:22;;;;;;;;;;;24.50;52.50;;;;;;1566405;74;1591;-53
2023/08/27 09:48:26;;;;;;;;;;;24.30;52.40;;;;;;1563990;74;741;-54
2023/08/27 09:50:28;;;;;;;;;;;24.40;52.30;;;;;;1577579;74;1152;-54
2023/08/27 09:52:30;;;;;;;;;;;24.40;52.10;;;;;;1573303;74;817;-54
2023/08/27 09:54:32;;;;;;;;;;;24.40;52.30;;;;;;1583130;74;762;-54
2023/08/27 09:56:34;;;;;;;;;;;24.40;52.40;;;;;;1576189;74;766;-53
2023/08/27 09:58:38;;;;;;;;;;;24.40;52.40;;;;;;1537708;76;1278;-54
2023/08/27 10:00:40;;;;;;;;;;;24.40;52.40;;;;;;1572812;74;1542;-54
2023/08/27 10:02:43;;;;;;;;;;;24.50;52.60;;;;;;1544630;75;1198;-55
2023/08/27 10:04:53;;;;;;;;;;;24.50;52.60;;;;;;1563771;74;1927;-55
2023/08/27 10:06:54;;;;;;;;;;;24.40;52.40;;;;;;1575924;74;695;-53
2023/08/27 10:08:56;;;;;;;;;;;24.40;52.40;;;;;;1575163;74;717;-54
2023/08/27 10:11:09;;;;;;;;;;;24.40;52.40;;;;;;1565895;74;1155;-53
2023/08/27 10:13:11;;;;;;;;;;;24.50;52.50;;;;;;1567185;74;1553;-54
2023/08/27 10:15:13;;;;;;;;;;;24.40;52.50;;;;;;1567320;74;707;-55
2023/08/27 10:17:15;;;;;;;;;;;24.40;52.50;;;;;;1568009;74;799;-52
2023/08/27 10:19:17;;;;;;;;;;;24.50;52.60;;;;;;1573166;74;1124;-54
2023/08/27 10:21:19;;;;;;;;;;;24.50;52.50;;;;;;1574975;74;771;-55
2023/08/27 10:23:21;;;;;;;;;;;24.40;52.50;;;;;;1575383;74;780;-54
2023/08/27 10:25:23;;;;;;;;;;;24.40;52.40;;;;;;1572926;74;1922;-55
2023/08/27 10:27:25;;;;;;;;;;;24.40;52.40;;;;;;1572895;74;1540;-53
2023/08/27 10:29:27;;;;;;;;;;;24.40;52.40;;;;;;1571238;74;1152;-52
2023/08/27 10:31:29;;;;;;;;;;;24.40;52.40;;;;;;1573829;74;830;-53
2023/08/27 10:33:31;;;;;;;;;;;24.40;52.40;;;;;;1570807;74;781;-51
2023/08/27 10:35:34;;;;;;;;;;;24.40;52.30;;;;;;1573404;74;941;-52
2023/08/27 10:37:36;;;;;;;;;;;24.40;52.30;;;;;;1560906;74;716;-52
2023/08/27 10:39:38;;;;;;;;;;;24.40;52.30;;;;;;1571616;74;1157;-55
2023/08/27 10:41:40;;;;;;;;;;;24.40;52.30;;;;;;1570316;74;1565;-54
2023/08/27 10:43:42;;;;;;;;;;;24.40;52.30;;;;;;1573279;74;1938;-55
2023/08/27 10:45:44;;;;;;;;;;;24.40;52.30;;;;;;1568430;74;677;-54
2023/08/27 10:48:04;;;;;;;;;;;24.50;52.40;;;;;;1574352;74;819;-52
2023/08/27 10:50:06;;;;;;;;;;;24.40;52.40;;;;;;1568286;74;1163;-53
2023/08/27 10:52:15;;;;;;;;;;;24.50;52.50;;;;;;1558407;74;700;-54
2023/08/27 10:54:18;;;;;;;;;;;24.40;52.40;;;;;;1579076;74;699;-52
2023/08/27 10:56:27;;;;;;;;;;;24.40;52.40;;;;;;1566586;74;1396;-53
2023/08/27 10:58:48;;;;;;;;;;;24.40;52.30;;;;;;1568900;74;723;-54
2023/08/27 11:01:09;;;;;;;;;;;24.40;52.30;;;;;;1502702;77;1188;-54
2023/08/27 11:03:13;;;;;;;;;;;24.40;52.40;;;;;;1497052;77;735;-55
2023/08/27 11:05:15;;;;;;;;;;;24.50;52.50;;;;;;1508328;77;1939;-55
2023/08/27 11:07:17;;;;;;;;;;;24.40;52.40;;;;;;1506787;77;741;-54
2023/08/27 11:09:27;;;;;;;;;;;24.40;52.40;;;;;;1497435;77;1519;-55
2023/08/27 11:11:30;;;;;;;;;;;24.40;52.50;;;;;;1503873;77;716;-54
2023/08/27 11:13:32;;;;;;;;;;;24.40;52.40;;;;;;1503883;77;750;-52
2023/08/27 11:15:34;;;;;;;;;;;24.40;52.40;;;;;;1502108;77;790;-52
2023/08/27 11:17:36;;;;;;;;;;;24.40;52.40;;;;;;1478357;79;1121;-55
2023/08/27 11:19:38;;;;;;;;;;;24.40;52.30;;;;;;1502116;77;1184;-55
2023/08/27 11:21:40;;;;;;;;;;;24.40;52.30;;;;;;1503319;77;761;-55
2023/08/27 11:23:45;;;;;;;;;;;24.40;52.30;;;;;;1499178;77;1558;-55
2023/08/27 11:25:46;;;;;;;;;;;24.40;52.40;;;;;;1503475;78;1930;-55
2023/08/27 11:27:48;;;;;;;;;;;24.40;52.30;;;;;;1506885;77;731;-52
2023/08/27 11:29:51;;;;;;;;;;;24.40;52.30;;;;;;1503731;77;1131;-53
2023/08/27 11:31:54;;;;;;;;;;;24.30;52.30;;;;;;1499651;78;704;-55
2023/08/27 11:33:56;;;;;;;;;;;24.30;52.40;;;;;;1460138;80;831;-54
2023/08/27 11:35:58;;;;;;;;;;;24.40;52.30;;;;;;1499015;77;758;-54
2023/08/27 11:38:00;;;;;;;;;;;24.40;52.20;;;;;;1502100;78;1282;-53
2023/08/27 11:40:02;;;;;;;;;;;24.40;52.30;;;;;;1502300;78;1146;-53
2023/08/27 11:42:06;;;;;;;;;;;24.40;52.30;;;;;;1492425;77;745;-55
2023/08/27 11:44:10;;;;;;;;;;;24.40;52.30;;;;;;1498536;77;1938;-55
2023/08/27 11:46:24;;;;;;;;;;;24.40;52.30;;;;;;1497552;78;715;-55
2023/08/27 11:48:26;;;;;;;;;;;24.40;52.30;;;;;;1493395;77;745;-55
2023/08/27 11:50:28;;;;;;;;;;;24.40;52.30;;;;;;1499836;77;1125;-55
2023/08/27 11:52:30;;;;;;;;;;;24.40;52.30;;;;;;1498288;78;1536;-55
2023/08/27 11:54:32;;;;;;;;;;;24.40;52.30;;;;;;1495303;77;739;-53
2023/08/27 11:56:40;;;;;;;;;;;24.40;52.30;;;;;;1499377;77;799;-54
2023/08/27 11:58:42;;;;;;;;;;;24.40;52.30;;;;;;1500577;77;707;-53
2023/08/27 12:00:49;;;;;;;;;;;24.40;52.30;;;;;;1499217;77;1120;-53
2023/08/27 12:02:47;;;;;;;;;;;24.30;52.30;;;;;;1503226;78;968;-55
2023/08/27 12:04:49;;;;;;;;;;;24.40;52.30;;;;;;1505212;77;1941;-55
2023/08/27 12:06:52;;;;;;;;;;;24.40;52.30;;;;;;1501464;77;1538;-55
2023/08/27 12:08:55;;;;;;;;;;;24.40;52.20;;;;;;1512394;77;805;-55
2023/08/27 12:10:57;;;;;;;;;;;24.40;52.20;;;;;;1501674;77;1098;-54